createdAt,value
2018-06-19T04:08:03.535Z,94.9
2018-06-19T04:08:24.671Z,94.7
2018-06-19T04:08:45.761Z,94.8
2018-06-19T04:09:06.009Z,94.9
2018-06-19T04:09:26.688Z,95.1
2018-06-19T04:09:46.912Z,94.7
2018-06-19T04:20:39.918Z,94.8
2018-06-19T04:29:15.708Z,94.7
2018-06-19T04:35:46.362Z,94.7
2018-06-19T04:36:07.733Z,94.7
2018-06-19T04:36:28.752Z,94.2
2018-06-19T04:37:25.693Z,93.9
2018-06-19T04:37:45.993Z,93.3
2018-06-19T04:38:06.149Z,93.4
2018-06-19T04:38:26.336Z,93.3
2018-06-19T04:38:46.684Z,94.1
2018-06-19T04:39:07.583Z,93.9
2018-06-19T04:39:28.426Z,94.1
2018-06-19T04:39:48.588Z,92.8
2018-06-19T04:54:42.738Z,92.5
2018-06-19T04:56:00.047Z,92.9
2018-06-19T04:56:20.270Z,92.6
2018-06-19T04:56:51.746Z,92.9
2018-06-19T04:57:12.104Z,92.5
2018-06-19T04:57:32.351Z,92.8
2018-06-19T04:58:15.723Z,93
2018-06-19T04:58:36.818Z,93
2018-06-19T04:58:57.192Z,93
2018-06-19T04:59:17.374Z,93.1
2018-06-19T04:59:37.647Z,92.6
2018-06-19T04:59:57.841Z,93
2018-06-19T05:00:18.063Z,92.3
2018-06-19T05:00:38.274Z,92.2
2018-06-19T05:01:09.819Z,92
2018-06-19T05:01:30.051Z,91.4
2018-06-19T05:01:50.281Z,91.3
2018-06-19T05:02:10.450Z,91.6
2018-06-19T05:02:30.675Z,91.3
2018-06-19T05:02:50.840Z,91.4
2018-06-19T05:03:11.068Z,91.9
2018-06-19T05:03:31.247Z,91.8
2018-06-19T05:03:52.220Z,91.3
2018-06-19T05:05:40.612Z,91.6
2018-06-19T05:06:25.828Z,91.4
2018-06-19T05:07:10.890Z,91.1
2018-06-19T05:07:56.038Z,91.1
2018-06-19T05:08:35.487Z,91.4
2018-06-19T05:09:07.026Z,91.9
2018-06-19T05:10:05.047Z,91.6
2018-06-19T05:10:50.203Z,91.5
2018-06-19T05:19:45.631Z,91.6
2018-06-19T05:20:43.594Z,92
2018-06-19T05:21:04.536Z,91.6
2018-06-19T05:21:49.205Z,91.6
2018-06-19T05:22:09.577Z,91.3
2018-06-19T05:22:59.121Z,91.1
2018-06-19T05:23:20.208Z,91
2018-06-19T05:23:40.613Z,91.1
2018-06-19T05:24:00.806Z,91.3
2018-06-19T05:24:21.040Z,91.1
2018-06-19T05:24:41.312Z,90.8
2018-06-19T05:25:01.450Z,90.9
2018-06-19T05:25:21.776Z,90.8
2018-06-19T05:25:42.896Z,90.8
2018-06-19T05:26:03.072Z,91.1
2018-06-19T05:26:23.290Z,90.8
2018-06-19T05:26:43.427Z,91.1
2018-06-19T05:27:03.583Z,91.3
2018-06-19T05:27:24.681Z,91
2018-06-19T05:27:44.860Z,91.3
2018-06-19T05:28:05.076Z,91.1
2018-06-19T05:28:25.287Z,90.6
2018-06-19T05:28:45.466Z,90.9
2018-06-19T05:32:46.344Z,90.7
2018-06-19T06:05:26.597Z,88.6
2018-06-19T06:06:31.078Z,86.8
2018-06-19T06:06:51.864Z,85.7
2018-06-19T06:07:48.574Z,85.1
2018-06-19T06:08:09.116Z,84.4
2018-06-19T06:09:05.953Z,85.4
2018-06-19T06:09:26.197Z,85.1
2018-06-19T06:09:47.161Z,85.2
2018-06-19T06:10:36.377Z,85.5
2018-06-19T06:10:57.590Z,85.6
2018-06-19T06:11:17.784Z,85.5
2018-06-19T06:11:37.996Z,85.7
2018-06-19T06:11:58.073Z,86.8
2018-06-19T06:12:19.135Z,87.3
2018-06-19T06:12:39.292Z,86.7
2018-06-19T06:12:59.491Z,86.8
2018-06-19T06:13:19.662Z,86.7
2018-06-19T06:13:39.861Z,86.4
2018-06-19T06:14:00.025Z,86.9
2018-06-19T06:14:20.373Z,86.7
2018-06-19T06:14:40.610Z,86.7
2018-06-19T06:15:00.791Z,86.7
2018-06-19T06:15:20.952Z,86.7
2018-06-19T06:15:41.304Z,86.7
2018-06-19T06:16:02.109Z,86.7
2018-06-19T06:16:22.304Z,86.6
2018-06-19T06:16:42.526Z,87.4
2018-06-19T06:17:03.618Z,88
2018-06-19T06:17:23.787Z,87.5
2018-06-19T06:17:44.184Z,87.1
2018-06-19T06:18:04.374Z,87.2
2018-06-19T06:18:24.582Z,86.7
2018-06-19T06:18:44.849Z,86.7
2018-06-19T06:19:05.732Z,86.4
2018-06-19T06:19:25.938Z,86.2
2018-06-19T06:19:46.092Z,86.3
2018-06-19T06:20:06.407Z,86.3
2018-06-19T06:20:27.675Z,86.4
2018-06-19T06:20:47.888Z,85.8
2018-06-19T06:21:08.114Z,85.8
2018-06-19T06:21:28.386Z,86.2
2018-06-19T06:21:48.603Z,86.1
2018-06-19T06:22:08.819Z,86.2
2018-06-19T06:22:29.078Z,85.4
2018-06-19T06:22:50.074Z,85.3
2018-06-19T06:23:36.901Z,84.7
2018-06-19T06:23:57.250Z,84.4
2018-06-19T06:24:42.571Z,83.6
2018-06-19T06:25:21.397Z,84.3
2018-06-19T06:25:41.913Z,83.8
2018-06-19T06:26:02.424Z,83.5
2018-06-19T06:26:38.988Z,82.8
2018-06-19T06:27:00.356Z,81.8
2018-06-19T06:27:21.173Z,81.7
2018-06-19T06:27:42.362Z,81.4
2018-06-19T06:28:03.292Z,81.3
2018-06-19T06:28:23.581Z,81.7
2018-06-19T06:28:43.836Z,81.4
2018-06-19T06:29:33.994Z,81
2018-06-19T06:29:54.842Z,81
2018-06-19T06:30:15.057Z,81.4
2018-06-19T06:30:35.402Z,81.4
2018-06-19T06:30:56.458Z,81.3
2018-06-19T06:31:16.767Z,81.1
2018-06-19T06:31:37.917Z,80.6
2018-06-19T06:31:58.915Z,81.4
2018-06-19T06:32:20.068Z,80.7
2018-06-19T06:32:40.375Z,80.9
2018-06-19T06:33:00.759Z,80.9
2018-06-19T06:33:21.148Z,80.5
2018-06-19T06:33:41.571Z,80.9
2018-06-19T06:34:01.964Z,80.6
2018-06-19T06:34:22.264Z,80.8
2018-06-19T06:39:01.268Z,78.7
2018-06-19T06:39:59.754Z,78.8
2018-06-19T06:41:49.193Z,77.8
2018-06-19T06:42:21.283Z,77.6
2018-06-19T06:43:25.874Z,78.6
2018-06-19T06:44:04.868Z,78.2
2018-06-19T06:44:36.905Z,78.4
2018-06-19T06:45:41.992Z,78.2
2018-06-19T06:53:13.447Z,79.1
2018-06-19T06:53:45.456Z,79
2018-06-19T06:54:26.052Z,78.6
2018-06-19T06:54:46.591Z,78.4
2018-06-19T06:55:28.653Z,77.5
2018-06-19T06:55:51.075Z,77.6
2018-06-19T07:10:23.895Z,79
2018-06-19T07:11:49.322Z,78.4
2018-06-19T07:12:47.346Z,78.7
2018-06-19T07:13:08.345Z,78.2
2018-06-19T07:14:11.494Z,79.7
2018-06-19T07:14:56.684Z,79.3
2018-06-19T07:21:30.256Z,79.7
2018-06-19T07:22:15.258Z,79.6
2018-06-19T07:23:52.088Z,78.6
2018-06-19T07:24:37.349Z,77.8
2018-06-19T07:25:15.980Z,78.1
2018-06-19T07:25:36.410Z,79.3
2018-06-19T07:26:20.583Z,78.9
2018-06-19T07:26:41.938Z,79.5
2018-06-19T07:27:02.255Z,78.8
2018-06-19T07:27:22.708Z,79.4
2018-06-19T07:27:43.007Z,79.2
2018-06-19T07:28:03.337Z,79.2
2018-06-19T07:28:42.827Z,80.3
2018-06-19T07:29:03.287Z,79.7
2018-06-19T07:29:23.529Z,79
2018-06-19T07:29:43.741Z,79.9
2018-06-19T07:30:03.990Z,79.9
2018-06-19T07:30:24.298Z,79.1
2018-06-19T07:30:44.581Z,79
2018-06-19T07:31:04.866Z,79
2018-06-19T07:31:56.613Z,80
2018-06-19T07:32:17.900Z,79.6
2018-06-19T07:32:38.173Z,79.1
2018-06-19T07:32:58.443Z,78.9
2018-06-19T07:33:19.336Z,78.7
2018-06-19T07:33:39.520Z,78.5
2018-06-19T07:33:59.801Z,78.4
2018-06-19T07:34:20.033Z,77.8
2018-06-19T07:34:40.284Z,78.4
2018-06-19T07:35:00.649Z,78.3
2018-06-19T07:35:20.899Z,78.1
2018-06-19T07:35:41.923Z,77.9
2018-06-19T07:36:02.179Z,77.8
2018-06-19T07:36:22.340Z,78
2018-06-19T07:36:42.730Z,77.7
2018-06-19T07:37:02.947Z,78.5
2018-06-19T07:37:23.123Z,79.3
2018-06-19T07:37:43.415Z,78.9
2018-06-19T07:38:04.491Z,78.4
2018-06-19T07:38:24.823Z,78.5
2018-06-19T07:38:45.828Z,78.3
2018-06-19T07:39:06.089Z,78.2
2018-06-19T07:39:26.311Z,78.2
2018-06-19T07:39:46.620Z,78.4
2018-06-19T07:40:06.869Z,78.7
2018-06-19T07:40:27.191Z,79.2
2018-06-19T07:40:47.393Z,79.2
2018-06-19T07:41:07.652Z,80.3
2018-06-19T07:41:28.808Z,80.3
2018-06-19T07:41:51.224Z,79.8
2018-06-19T07:42:13.388Z,79.8
2018-06-19T07:42:33.747Z,78.9
2018-06-19T07:42:54.053Z,79.5
2018-06-19T07:43:14.332Z,79.1
2018-06-19T07:43:34.665Z,79.3
2018-06-19T07:43:54.973Z,79.4
2018-06-19T07:44:15.185Z,78.8
2018-06-19T07:44:35.379Z,79.1
2018-06-19T07:44:56.209Z,78.1
2018-06-19T07:45:17.279Z,77.9
2018-06-19T07:45:37.636Z,78.2
2018-06-19T07:45:57.794Z,78.5
2018-06-19T07:46:19.732Z,78.5
2018-06-19T07:46:40.020Z,79.3
2018-06-19T07:47:00.370Z,79.4
2018-06-19T07:47:20.571Z,78.9
2018-06-19T07:47:41.408Z,78.5
2018-06-19T07:48:01.616Z,77.9
2018-06-19T07:48:22.031Z,77.7
2018-06-19T07:48:42.365Z,77.7
2018-06-19T07:49:02.808Z,78.3
2018-06-19T07:49:23.213Z,78.3
2018-06-19T07:49:43.741Z,77.9
2018-06-19T07:50:05.412Z,78.4
2018-06-19T07:50:25.675Z,77.8
2018-06-19T07:50:46.142Z,77.7
2018-06-19T07:51:07.403Z,77.9
2018-06-19T07:51:28.290Z,78.6
2018-06-19T07:51:48.573Z,78.3
2018-06-19T07:52:09.977Z,78
2018-06-19T07:52:30.278Z,78.1
2018-06-19T07:52:50.591Z,78
2018-06-19T07:53:10.875Z,77.9
2018-06-19T07:53:31.217Z,78.1
2018-06-19T07:53:51.485Z,77.8
2018-06-19T07:54:11.738Z,78.2
2018-06-19T07:54:32.038Z,78.6
2018-06-19T07:54:52.911Z,79.1
2018-06-19T07:55:13.185Z,79.5
2018-06-19T07:55:33.500Z,79.7
2018-06-19T07:55:53.772Z,79.3
2018-06-19T07:56:14.779Z,79.6
2018-06-19T07:56:35.080Z,79.1
2018-06-19T07:56:55.275Z,79.4
2018-06-19T07:57:16.460Z,79
2018-06-19T07:57:36.670Z,79.2
2018-06-19T07:57:56.899Z,79.5
2018-06-19T07:58:17.157Z,79.4
2018-06-19T07:58:37.329Z,79.2
2018-06-19T07:58:58.369Z,78.9
2018-06-19T07:59:19.310Z,78.1
2018-06-19T07:59:39.494Z,77.6
2018-06-19T07:59:59.767Z,77.9
2018-06-19T08:00:19.936Z,78.6
2018-06-19T08:00:40.171Z,78.5
2018-06-19T08:01:00.513Z,78.6
2018-06-19T08:01:20.697Z,78.4
2018-06-19T08:01:40.904Z,78.5
2018-06-19T08:02:01.138Z,78.3
2018-06-19T08:02:21.237Z,78.9
2018-06-19T08:02:41.532Z,78.9
2018-06-19T08:03:01.782Z,78.4
2018-06-19T08:03:21.932Z,77.6
2018-06-19T08:03:42.272Z,76.7
2018-06-19T08:04:02.668Z,76.7
2018-06-19T08:04:22.888Z,77.3
2018-06-19T08:04:43.152Z,77.4
2018-06-19T08:05:03.686Z,77.5
2018-06-19T08:05:24.129Z,76.6
2018-06-19T08:05:45.346Z,75.5
2018-06-19T08:06:06.898Z,75.5
2018-06-19T08:06:28.308Z,76.3
2018-06-19T08:06:48.558Z,76.7
2018-06-19T08:07:08.969Z,76.4
2018-06-19T08:07:29.216Z,76.2
2018-06-19T08:07:50.499Z,75.3
2018-06-19T08:08:10.847Z,75
2018-06-19T08:08:31.057Z,74.8
2018-06-19T08:08:51.230Z,73.9
2018-06-19T08:09:12.288Z,73.2
2018-06-19T08:09:32.623Z,73.5
2018-06-19T08:09:52.831Z,73.6
2018-06-19T08:10:15.709Z,73.7
2018-06-19T08:10:38.903Z,73.8
2018-06-19T08:11:01.413Z,73.9
2018-06-19T08:11:21.606Z,74.1
2018-06-19T08:11:41.884Z,73.3
2018-06-19T08:12:02.053Z,73.3
2018-06-19T08:12:22.222Z,73.2
2018-06-19T08:12:42.385Z,72.1
2018-06-19T08:13:02.561Z,72.4
2018-06-19T08:13:22.801Z,73.2
2018-06-19T08:13:43.787Z,73.2
2018-06-19T08:14:03.953Z,72.6
2018-06-19T08:14:24.121Z,72.3
2018-06-19T08:14:44.289Z,72.7
2018-06-19T08:15:04.511Z,72.7
2018-06-19T08:15:26.432Z,72.5
2018-06-19T08:15:46.679Z,73.7
2018-06-19T08:16:07.417Z,73.6
2018-06-19T08:16:28.913Z,74.2
2018-06-19T08:16:49.146Z,75
2018-06-19T08:17:09.368Z,74.8
2018-06-19T08:17:30.306Z,74.2
2018-06-19T08:17:50.609Z,74.2
2018-06-19T08:18:10.756Z,74.2
2018-06-19T08:18:30.840Z,74.6
2018-06-19T08:18:51.599Z,75.3
2018-06-19T08:19:11.901Z,74.1
2018-06-19T08:19:31.899Z,73.8
2018-06-19T08:19:55.481Z,73.9
2018-06-19T08:20:15.715Z,73.8
2018-06-19T08:20:36.186Z,73.8
2018-06-19T08:20:56.487Z,73.6
2018-06-19T08:21:16.733Z,74
2018-06-19T08:21:38.985Z,73.8
2018-06-19T08:22:31.130Z,74.3
2018-06-19T08:24:02.526Z,74.1
2018-06-19T08:25:18.573Z,73.6
2018-06-19T08:25:42.639Z,74.1
2018-06-19T08:26:03.549Z,74
2018-06-19T08:26:55.419Z,73.9
2018-06-19T08:27:15.860Z,74.4
2018-06-19T08:27:36.133Z,74
2018-06-19T08:27:56.353Z,74.2
2018-06-19T08:28:16.634Z,74
2018-06-19T08:28:37.021Z,74.3
2018-06-19T08:28:57.252Z,74
2018-06-19T08:29:18.319Z,74
2018-06-19T08:29:38.789Z,75.1
2018-06-19T08:29:59.168Z,75
2018-06-19T08:30:19.386Z,75
2018-06-19T08:30:41.907Z,75
2018-06-19T08:31:02.057Z,75
2018-06-19T08:31:22.326Z,75
2018-06-19T08:31:42.664Z,74.8
2018-06-19T08:32:02.847Z,74.1
2018-06-19T08:32:23.847Z,74.2
2018-06-19T08:32:44.836Z,74.2
2018-06-19T08:33:05.150Z,75
2018-06-19T08:33:26.189Z,75
2018-06-19T08:33:46.384Z,75
2018-06-19T08:34:07.442Z,74.8
2018-06-19T08:34:27.760Z,75.2
2018-06-19T08:34:49.979Z,75.3
2018-06-19T08:35:10.335Z,75
2018-06-19T08:35:30.609Z,75
2018-06-19T08:35:50.918Z,75.4
2018-06-19T08:36:11.807Z,75.4
2018-06-19T08:36:32.084Z,75.4
2018-06-19T08:36:52.327Z,75.4
2018-06-19T08:37:12.608Z,76.3
2018-06-19T08:37:32.836Z,75.9
2018-06-19T08:37:54.385Z,76.4
2018-06-19T08:38:14.755Z,76.5
2018-06-19T08:38:34.941Z,76.6
2018-06-19T08:38:55.149Z,77.1
2018-06-19T08:39:15.342Z,76.9
2018-06-19T08:39:35.529Z,76.4
2018-06-19T08:39:55.725Z,76.3
2018-06-19T08:40:19.306Z,76.8
2018-06-19T08:40:39.623Z,76.9
2018-06-19T08:40:59.848Z,76.6
2018-06-19T08:41:20.076Z,76.6
2018-06-19T08:41:40.335Z,76.1
2018-06-19T08:42:00.751Z,76.4
2018-06-19T08:42:20.990Z,77.3
2018-06-19T08:42:41.170Z,78
2018-06-19T08:43:01.400Z,77.6
2018-06-19T08:43:21.584Z,77.9
2018-06-19T08:43:41.835Z,77.5
2018-06-19T08:44:02.052Z,77.4
2018-06-19T08:44:22.299Z,77.1
2018-06-19T08:44:42.559Z,77
2018-06-19T08:45:03.313Z,76.5
2018-06-19T08:45:24.397Z,76.3
2018-06-19T08:45:44.618Z,76.3
2018-06-19T08:46:07.408Z,76.1
2018-06-19T08:46:28.287Z,75.9
2018-06-19T08:46:49.310Z,75.4
2018-06-19T08:47:09.494Z,76.3
2018-06-19T08:47:29.748Z,77
2018-06-19T08:47:50.039Z,76.3
2018-06-19T08:48:10.889Z,76.3
2018-06-19T08:48:31.263Z,76.8
2018-06-19T08:48:52.357Z,76.1
2018-06-19T08:49:12.581Z,76.2
2018-06-19T08:49:32.765Z,76.3
2018-06-19T08:49:52.992Z,76.4
2018-06-19T08:50:13.200Z,76.2
2018-06-19T08:50:33.427Z,76
2018-06-19T08:50:53.757Z,77
2018-06-19T08:51:13.991Z,77
2018-06-19T08:51:34.189Z,76
2018-06-19T08:51:54.371Z,76
2018-06-19T08:52:14.657Z,75.8
2018-06-19T08:52:34.845Z,75.9
2018-06-19T08:52:55.008Z,76.3
2018-06-19T08:53:15.210Z,75.9
2018-06-19T08:53:35.365Z,75.4
2018-06-19T08:53:55.615Z,76
2018-06-19T08:54:15.961Z,75.5
2018-06-19T08:54:36.133Z,75.5
2018-06-19T08:54:56.449Z,76.4
2018-06-19T08:55:16.663Z,77.4
2018-06-19T08:55:36.866Z,76.8
2018-06-19T08:55:57.114Z,77.3
2018-06-19T08:56:17.344Z,77.1
2018-06-19T08:56:40.344Z,77
2018-06-19T08:57:00.511Z,75.2
2018-06-19T08:57:20.743Z,74.7
2018-06-19T08:57:40.917Z,75.6
2018-06-19T08:58:01.221Z,76.2
2018-06-19T08:58:21.400Z,74.2
2018-06-19T08:58:41.639Z,74.9
2018-06-19T08:59:01.880Z,75.5
2018-06-19T08:59:22.173Z,76.1
2018-06-19T08:59:42.368Z,76.2
2018-06-19T09:00:02.605Z,75.5
2018-06-19T09:00:22.871Z,75
2018-06-19T09:00:43.072Z,73.8
2018-06-19T09:01:03.349Z,74
2018-06-19T09:01:23.632Z,73.9
2018-06-19T09:01:43.847Z,74.2
2018-06-19T09:02:04.141Z,74.7
2018-06-19T09:02:24.550Z,74.9
2018-06-19T09:02:44.808Z,74.6
2018-06-19T09:03:05.006Z,75
2018-06-19T09:03:25.179Z,73.9
2018-06-19T09:03:45.396Z,73.3
2018-06-19T09:04:05.559Z,73.8
2018-06-19T09:04:25.752Z,73.8
2018-06-19T09:04:46.152Z,73.4
2018-06-19T09:05:06.402Z,73.6
2018-06-19T09:05:26.771Z,73.6
2018-06-19T09:05:46.981Z,73.2
2018-06-19T09:06:07.180Z,73.3
2018-06-19T09:06:28.401Z,74.5
2018-06-19T09:06:48.621Z,73.5
2018-06-19T09:07:09.814Z,73.9
2018-06-19T09:07:30.070Z,74.4
2018-06-19T09:07:50.328Z,74
2018-06-19T09:08:10.725Z,72.6
2018-06-19T09:08:31.036Z,72.5
2018-06-19T09:08:51.271Z,72.7
2018-06-19T09:09:11.468Z,72.6
2018-06-19T09:09:31.677Z,73.7
2018-06-19T09:09:51.865Z,73
2018-06-19T09:10:12.069Z,73.3
2018-06-19T09:10:32.325Z,72.8
2018-06-19T09:10:53.408Z,72.5
2018-06-19T09:11:34.778Z,72
2018-06-19T09:11:54.957Z,71.9
2018-06-19T09:12:15.274Z,72.6
2018-06-19T09:12:35.593Z,72.4
2018-06-19T09:12:58.303Z,71.8
2018-06-19T09:13:18.668Z,72.1
2018-06-19T09:13:39.043Z,71.7
2018-06-19T09:13:59.189Z,71.7
2018-06-19T09:14:19.535Z,71.7
2018-06-19T09:14:40.253Z,72.4
2018-06-19T09:15:00.495Z,72.2
2018-06-19T09:15:20.768Z,71.7
2018-06-19T09:15:41.060Z,71.7
2018-06-19T09:16:01.350Z,71.3
2018-06-19T09:16:21.527Z,70.9
2018-06-19T09:16:41.766Z,70.6
2018-06-19T09:17:02.025Z,70
2018-06-19T09:17:23.942Z,71.1
2018-06-19T09:17:44.182Z,70.8
2018-06-19T09:18:06.895Z,70.1
2018-06-19T09:18:27.134Z,70.1
2018-06-19T09:18:47.392Z,69.7
2018-06-19T09:19:08.324Z,69.6
2018-06-19T09:19:28.556Z,69.5
2018-06-19T09:19:48.962Z,70.2
2018-06-19T09:20:09.712Z,69.6
2018-06-19T09:20:29.967Z,69.3
2018-06-19T09:20:50.062Z,69.5
2018-06-19T09:21:10.350Z,69.1
2018-06-19T09:21:30.576Z,69.2
2018-06-19T09:21:50.779Z,70.7
2018-06-19T09:22:10.974Z,69.7
2018-06-19T09:22:31.250Z,69.5
2018-06-19T09:22:51.456Z,69.2
2018-06-19T09:23:11.590Z,69.7
2018-06-19T09:23:31.848Z,70.2
2018-06-19T09:23:52.048Z,70.1
2018-06-19T09:24:12.274Z,69.5
2018-06-19T09:24:32.498Z,69
2018-06-19T09:24:52.795Z,68.9
2018-06-19T09:25:13.846Z,68.9
2018-06-19T09:25:34.664Z,69.5
2018-06-19T09:25:54.926Z,69.4
2018-06-19T09:26:15.153Z,68.9
2018-06-19T09:26:35.467Z,70.1
2018-06-19T09:26:55.767Z,70.4
2018-06-19T09:27:16.002Z,69.6
2018-06-19T09:27:36.209Z,69.6
2018-06-19T09:27:56.420Z,69.6
2018-06-19T09:28:16.709Z,69.6
2018-06-19T09:28:37.040Z,69
2018-06-19T09:28:57.325Z,69.1
2018-06-19T09:29:17.624Z,69
2018-06-19T09:29:37.857Z,69
2018-06-19T09:29:58.114Z,71.1
2018-06-19T09:30:18.979Z,69.6
2018-06-19T09:30:39.161Z,69.4
2018-06-19T09:31:00.415Z,68.7
2018-06-19T09:31:21.554Z,68.9
2018-06-19T09:31:43.762Z,68.5
2018-06-19T09:32:04.011Z,68.5
2018-06-19T09:32:24.635Z,68.4
2018-06-19T09:32:45.170Z,68.6
2018-06-19T09:33:05.953Z,69
2018-06-19T09:33:26.212Z,69.6
2018-06-19T09:33:47.468Z,69.6
2018-06-19T09:34:07.814Z,69.5
2018-06-19T09:34:28.107Z,69.6
2018-06-19T09:34:48.634Z,69.5
2018-06-19T09:35:08.977Z,69.7
2018-06-19T09:35:29.234Z,69.1
2018-06-19T09:35:49.662Z,69.6
2018-06-19T09:36:10.981Z,69.7
2018-06-19T09:36:31.206Z,70
2018-06-19T09:36:51.499Z,70
2018-06-19T09:37:11.673Z,70.3
2018-06-19T09:37:31.889Z,70.7
2018-06-19T09:37:52.261Z,70.8
2018-06-19T09:38:12.500Z,70.8
2018-06-19T09:38:32.907Z,70.5
2018-06-19T09:38:53.158Z,70.9
2018-06-19T09:39:13.514Z,70.5
2018-06-19T09:39:33.715Z,71
2018-06-19T09:39:53.938Z,70.3
2018-06-19T09:40:14.145Z,71.4
2018-06-19T09:40:34.444Z,71.8
2018-06-19T09:40:54.652Z,71.5
2018-06-19T09:41:14.869Z,71.4
2018-06-19T09:41:35.078Z,71.8
2018-06-19T09:41:55.372Z,74.1
2018-06-19T09:42:15.592Z,73.8
2018-06-19T09:42:35.816Z,72.4
2018-06-19T09:42:56.013Z,72.2
2018-06-19T09:43:16.268Z,72
2018-06-19T09:43:36.688Z,71
2018-06-19T09:43:56.983Z,70.1
2018-06-19T09:44:17.188Z,69.2
2018-06-19T09:44:37.353Z,68.8
2018-06-19T09:44:58.927Z,68.6
2018-06-19T09:45:19.719Z,68.3
2018-06-19T09:45:40.879Z,68.4
2018-06-19T09:46:01.839Z,69.3
2018-06-19T09:46:22.846Z,69.1
2018-06-19T09:46:43.198Z,68.1
2018-06-19T09:47:03.592Z,68.8
2018-06-19T09:47:23.888Z,66.9
2018-06-19T09:47:44.925Z,67.3
2018-06-19T09:48:05.190Z,66.9
2018-06-19T09:48:25.433Z,66.1
2018-06-19T09:48:45.670Z,65.9
2018-06-19T09:49:05.939Z,66.1
2018-06-19T09:49:26.275Z,65.9
2018-06-19T09:49:46.493Z,65.9
2018-06-19T09:50:07.443Z,66.3
2018-06-19T09:50:27.674Z,66.1
2018-06-19T09:50:47.869Z,66.1
2018-06-19T09:51:08.092Z,66.3
2018-06-19T09:51:28.271Z,65.5
2018-06-19T09:51:48.592Z,65.5
2018-06-19T09:52:09.297Z,66.5
2018-06-19T09:52:29.509Z,67.2
2018-06-19T09:52:49.751Z,66.9
2018-06-19T09:53:10.770Z,67.2
2018-06-19T09:53:31.963Z,68.2
2018-06-19T09:53:52.202Z,69
2018-06-19T09:54:12.503Z,67.9
2018-06-19T09:54:33.517Z,67.3
2018-06-19T09:54:54.460Z,66.3
2018-06-19T09:55:14.786Z,67.3
2018-06-19T09:55:35.019Z,67.9
2018-06-19T09:55:55.318Z,67.2
2018-06-19T09:56:15.634Z,67.1
2018-06-19T09:56:35.900Z,67.4
2018-06-19T09:56:56.122Z,68
2018-06-19T09:57:16.354Z,67.8
2018-06-19T09:57:36.619Z,67.3
2018-06-19T09:57:57.443Z,66.3
2018-06-19T09:58:17.631Z,66.7
2018-06-19T09:58:37.976Z,66.3
2018-06-19T09:58:58.777Z,65.9
2018-06-19T09:59:23.417Z,66.3
2018-06-19T09:59:43.589Z,65.7
2018-06-19T10:00:03.882Z,66.1
2018-06-19T10:00:24.088Z,66
2018-06-19T10:00:44.284Z,66.3
2018-06-19T10:01:04.541Z,66.1
2018-06-19T10:01:25.754Z,66.5
2018-06-19T10:01:46.005Z,66.3
2018-06-19T10:02:06.822Z,66.4
2018-06-19T10:02:26.932Z,66.6
2018-06-19T10:02:48.012Z,67.3
2018-06-19T10:03:08.238Z,68
2018-06-19T10:03:29.301Z,68.5
2018-06-19T10:03:49.615Z,68.8
2018-06-19T10:04:09.842Z,66.9
2018-06-19T10:04:30.056Z,66.8
2018-06-19T10:04:50.305Z,66.8
2018-06-19T10:05:11.400Z,67.9
2018-06-19T10:05:31.619Z,67.1
2018-06-19T10:05:52.789Z,67.2
2018-06-19T10:06:13.072Z,67.3
2018-06-19T10:06:33.463Z,66
2018-06-19T10:06:53.750Z,65.9
2018-06-19T10:07:13.947Z,65.6
2018-06-19T10:07:34.189Z,65.6
2018-06-19T10:07:54.469Z,65.7
2018-06-19T10:08:14.703Z,65.7
2018-06-19T10:08:34.887Z,66
2018-06-19T10:08:55.870Z,66
2018-06-19T10:09:16.060Z,65.7
2018-06-19T10:09:36.308Z,65.6
2018-06-19T10:09:56.570Z,65.7
2018-06-19T10:10:16.792Z,65.9
2018-06-19T10:10:37.881Z,65.9
2018-06-19T10:10:58.033Z,66
2018-06-19T10:11:18.257Z,66.2
2018-06-19T10:11:38.620Z,66.9
2018-06-19T10:11:58.891Z,66.7
2018-06-19T10:12:19.902Z,67.1
2018-06-19T10:12:40.078Z,67.3
2018-06-19T10:13:00.290Z,67.3
2018-06-19T10:13:20.552Z,66
2018-06-19T10:13:40.763Z,65.9
2018-06-19T10:14:00.986Z,66.6
2018-06-19T10:14:21.165Z,66.9
2018-06-19T10:14:41.980Z,67.2
2018-06-19T10:15:03.947Z,67
2018-06-19T10:15:24.925Z,67.2
2018-06-19T10:15:45.203Z,66.6
2018-06-19T10:16:05.960Z,67.3
2018-06-19T10:16:26.158Z,68
2018-06-19T10:16:46.420Z,68.6
2018-06-19T10:17:06.683Z,68.3
2018-06-19T10:17:27.830Z,68.7
2018-06-19T10:17:48.059Z,68.4
2018-06-19T10:18:08.301Z,68.5
2018-06-19T10:18:28.563Z,68.3
2018-06-19T10:18:48.826Z,68.1
2018-06-19T10:19:09.060Z,68
2018-06-19T10:19:29.314Z,68.2
2018-06-19T10:19:49.455Z,68.8
2018-06-19T10:20:09.623Z,68.6
2018-06-19T10:20:29.823Z,68.3
2018-06-19T10:20:50.139Z,67.6
2018-06-19T10:21:10.395Z,67.7
2018-06-19T10:21:30.576Z,68.5
2018-06-19T10:21:51.457Z,68.4
2018-06-19T10:22:11.679Z,68
2018-06-19T10:22:32.102Z,67.2
2018-06-19T10:22:52.408Z,67.6
2018-06-19T10:23:12.566Z,68.6
2018-06-19T10:23:33.468Z,68.1
2018-06-19T10:23:53.710Z,68.4
2018-06-19T10:24:13.935Z,67.8
2018-06-19T10:24:34.182Z,67.4
2018-06-19T10:24:54.402Z,67.2
2018-06-19T10:25:14.602Z,66.9
2018-06-19T10:25:34.959Z,67.2
2018-06-19T10:25:55.250Z,67.2
2018-06-19T10:26:15.459Z,66.9
2018-06-19T10:26:35.608Z,67.1
2018-06-19T10:26:55.910Z,67.2
2018-06-19T10:27:16.075Z,66.6
2018-06-19T10:27:36.309Z,66.1
2018-06-19T10:27:56.505Z,66.7
2018-06-19T10:28:16.767Z,66.8
2018-06-19T10:28:37.090Z,67.1
2018-06-19T10:28:57.336Z,67.5
2018-06-19T10:29:17.674Z,67.3
2018-06-19T10:29:37.902Z,67.6
2018-06-19T10:29:58.091Z,67.2
2018-06-19T10:30:18.416Z,67.1
2018-06-19T10:30:38.594Z,68.2
2018-06-19T10:30:59.887Z,67.8
2018-06-19T10:31:20.885Z,67.2
2018-06-19T10:31:41.114Z,67.2
2018-06-19T10:32:01.307Z,67.1
2018-06-19T10:32:22.334Z,67.7
2018-06-19T10:32:42.584Z,67.7
2018-06-19T10:33:02.803Z,68.4
2018-06-19T10:33:23.068Z,68
2018-06-19T10:33:43.292Z,68
2018-06-19T10:34:03.464Z,67.4
2018-06-19T10:34:23.648Z,67.3
2018-06-19T10:34:45.506Z,67
2018-06-19T10:35:05.682Z,66
2018-06-19T10:35:25.866Z,65.9
2018-06-19T10:35:46.023Z,65.5
2018-06-19T10:36:06.307Z,65.2
2018-06-19T10:36:27.476Z,65.7
2018-06-19T10:36:47.932Z,66
2018-06-19T10:37:09.009Z,66
2018-06-19T10:37:29.968Z,65.2
2018-06-19T10:37:50.191Z,65
2018-06-19T10:38:10.502Z,65.7
2018-06-19T10:38:31.923Z,65.7
2018-06-19T10:38:52.099Z,66.7
2018-06-19T10:39:12.329Z,65.9
2018-06-19T10:39:32.537Z,66.1
2018-06-19T10:39:52.829Z,65.3
2018-06-19T10:40:12.993Z,65.8
2018-06-19T10:40:33.772Z,65.1
2018-06-19T10:40:54.024Z,65.3
2018-06-19T10:41:16.879Z,65.4
2018-06-19T10:41:37.134Z,64.8
2018-06-19T10:41:57.295Z,65.1
2018-06-19T10:42:17.475Z,65.5
2018-06-19T10:42:37.836Z,66.6
2018-06-19T10:42:58.191Z,66
2018-06-19T10:43:18.540Z,66.3
2018-06-19T10:43:38.702Z,66
2018-06-19T10:43:58.928Z,66
2018-06-19T10:44:19.116Z,65.9
2018-06-19T10:44:39.348Z,65.9
2018-06-19T10:44:59.555Z,65.2
2018-06-19T10:45:19.794Z,65.5
2018-06-19T10:45:40.099Z,66.6
2018-06-19T10:46:00.423Z,66.5
2018-06-19T10:46:20.621Z,65.2
2018-06-19T10:46:40.919Z,66.1
2018-06-19T10:47:01.283Z,66.1
2018-06-19T10:47:21.584Z,66.5
2018-06-19T10:47:41.882Z,65.7
2018-06-19T10:48:02.151Z,65.5
2018-06-19T10:48:22.979Z,64.2
2018-06-19T10:48:43.356Z,64
2018-06-19T10:49:03.723Z,63.1
2018-06-19T10:49:24.152Z,63.9
2018-06-19T10:49:44.441Z,63.9
2018-06-19T10:50:04.730Z,64.9
2018-06-19T10:50:25.056Z,64.8
2018-06-19T10:50:45.372Z,64.8
2018-06-19T10:51:05.747Z,65.4
2018-06-19T10:51:26.060Z,66.8
2018-06-19T10:51:47.492Z,67.2
2018-06-19T10:52:09.358Z,67.1
2018-06-19T10:52:29.562Z,65.3
2018-06-19T10:52:49.931Z,64.8
2018-06-19T10:53:10.057Z,65.4
2018-06-19T10:53:30.347Z,66.4
2018-06-19T10:53:50.672Z,66.5
2018-06-19T10:54:10.860Z,66.1
2018-06-19T10:54:32.020Z,64.8
2018-06-19T10:54:52.282Z,64.4
2018-06-19T10:55:12.527Z,64.4
2018-06-19T10:55:32.770Z,64.3
2018-06-19T10:55:53.079Z,63.8
2018-06-19T10:56:13.475Z,62.9
2018-06-19T10:56:33.756Z,63.1
2018-06-19T10:56:53.917Z,63.5
2018-06-19T10:57:14.117Z,63.7
2018-06-19T10:57:34.295Z,64.5
2018-06-19T10:57:54.426Z,65.4
2018-06-19T10:58:14.757Z,65.5
2018-06-19T10:58:35.045Z,64.8
2018-06-19T10:58:55.393Z,64.2
2018-06-19T10:59:15.703Z,64.2
2018-06-19T10:59:35.954Z,63.6
2018-06-19T10:59:56.984Z,64.9
2018-06-19T11:00:17.368Z,64.1
2018-06-19T11:00:38.253Z,63.8
2018-06-19T11:01:00.994Z,64
2018-06-19T11:01:21.284Z,63.9
2018-06-19T11:01:41.496Z,63.4
2018-06-19T11:02:03.020Z,63.8
2018-06-19T11:02:23.219Z,63.9
2018-06-19T11:02:44.006Z,63.6
2018-06-19T11:03:04.276Z,63.3
2018-06-19T11:03:24.615Z,63.8
2018-06-19T11:03:44.830Z,64.2
2018-06-19T11:04:10.031Z,64
2018-06-19T11:04:30.310Z,64.3
2018-06-19T11:04:50.638Z,64.1
2018-06-19T11:05:10.846Z,64.8
2018-06-19T11:05:31.002Z,65.9
2018-06-19T11:05:51.174Z,65.4
2018-06-19T11:06:11.383Z,65